This is the latest recevied weather packets stored in our database for station/object F4LNO-10. If no packets are shown the sender has not sent any weather packets the latest 10 day(s).
| Time | Temp. | Humidity | Pressure | Rain* | Wind** | Luminosity | Snow |
|---|---|---|---|---|---|---|---|
| 1777536352 | 22.78° C | 57% | 1019 hPa | - | - | - | - |
| 1777535451 | 22.22° C | 56% | 1018.7 hPa | - | - | - | - |
| 1777534569 | 22.22° C | 55% | 1018.5 hPa | - | - | - | - |
| 1777533668 | 22.22° C | 54% | 1018.5 hPa | - | - | - | - |
| 1777532767 | 22.78° C | 53% | 1018.3 hPa | - | - | - | - |
| 1777531866 | 22.22° C | 52% | 1018.2 hPa | - | - | - | - |
| 1777530965 | 22.22° C | 52% | 1018 hPa | - | - | - | - |
| 1777530065 | 22.22° C | 51% | 1018.2 hPa | - | - | - | - |
| 1777529164 | 22.22° C | 49% | 1018.1 hPa | - | - | - | - |
| 1777528263 | 20° C | 52% | 1018.1 hPa | - | - | - | - |
| 1777527362 | 19.44° C | 53% | 1017.7 hPa | - | - | - | - |
| 1777526461 | 20° C | 52% | 1017.7 hPa | - | - | - | - |
| 1777525560 | 22.22° C | 48% | 1017.5 hPa | - | - | - | - |
| 1777524660 | 22.22° C | 48% | 1017.3 hPa | - | - | - | - |
| 1777523759 | 22.22° C | 48% | 1017 hPa | - | - | - | - |
| 1777522858 | 22.22° C | 48% | 1016.9 hPa | - | - | - | - |
| 1777521957 | 22.78° C | 47% | 1016.9 hPa | - | - | - | - |
| 1777521056 | 22.78° C | 47% | 1016.6 hPa | - | - | - | - |
| 1777520155 | 22.78° C | 46% | 1016.6 hPa | - | - | - | - |
| 1777519255 | 22.78° C | 47% | 1016.7 hPa | - | - | - | - |
| 1777518354 | 22.78° C | 46% | 1016.8 hPa | - | - | - | - |
| 1777517453 | 22.78° C | 47% | 1016.7 hPa | - | - | - | - |
| 1777516552 | 22.78° C | 47% | 1016.7 hPa | - | - | - | - |
| 1777515651 | 22.78° C | 47% | 1016.8 hPa | - | - | - | - |
| 1777514750 | 22.78° C | 46% | 1016.6 hPa | - | - | - | - |
* Rain since midnight (hover to see other rain measurements)
** Current wind speed in m/s (hover to see current wind gust speed)